Time;durP1;ratioP1;P1;durP2;ratioP2;P2;SDS_P1;SDS_P2;PMS_P1;PMS_P2;Temp;Humidity;BMP_temperature;BMP_pressure;BME280_temperature;BME280_humidity;BME280_pressure;Samples;Min_cycle;Max_cycle;Signal;HPM_P1;HPM_P2
2023/05/21 00:01:08;;;;;;;10.60;9.53;;;;;;;14.31;80.55;101131.66;4947442;28;20221;-70
2023/05/21 00:03:34;;;;;;;11.10;9.77;;;;;;;14.29;80.69;101130.91;4952326;28;20224;-71
2023/05/21 00:06:02;;;;;;;9.77;8.77;;;;;;;14.27;80.98;101122.13;4954019;28;20237;-71
2023/05/21 00:08:29;;;;;;;10.60;9.60;;;;;;;14.24;80.93;101123.19;4952929;28;20205;-68
2023/05/21 00:10:56;;;;;;;10.57;9.57;;;;;;;14.22;81.15;101120.63;4950192;28;20209;-70
2023/05/21 00:13:23;;;;;;;9.93;9.03;;;;;;;14.21;81.38;101123.41;4956239;28;20229;-69
2023/05/21 00:15:49;;;;;;;10.77;9.67;;;;;;;14.17;81.57;101119.22;4955521;28;20202;-72
2023/05/21 00:18:17;;;;;;;10.07;9.07;;;;;;;14.13;81.42;101113.25;4956787;28;20774;-67
2023/05/21 00:20:44;;;;;;;10.97;9.30;;;;;;;14.11;81.75;101111.66;4957321;28;20275;-70
2023/05/21 00:23:10;;;;;;;9.47;8.47;;;;;;;14.08;82.01;101111.88;4957207;28;20231;-68
2023/05/21 00:25:37;;;;;;;10.20;9.03;;;;;;;14.06;82.28;101108.44;4958475;28;20676;-70
2023/05/21 00:28:05;;;;;;;10.43;9.33;;;;;;;14.02;82.38;101101.56;4952443;28;20216;-69
2023/05/21 00:30:31;;;;;;;10.20;9.20;;;;;;;13.99;82.73;101107.13;4951178;28;20220;-69
2023/05/21 00:33:01;;;;;;;10.17;9.17;;;;;;;13.96;82.47;101096.66;4955827;28;20731;-70
2023/05/21 00:35:27;;;;;;;11.03;9.90;;;;;;;13.95;83.08;101100.31;4957050;28;20204;-69
2023/05/21 00:37:54;;;;;;;10.80;9.70;;;;;;;13.90;83.17;101095.25;4955742;28;20438;-69
2023/05/21 00:40:21;;;;;;;9.57;8.67;;;;;;;13.88;83.30;101095.38;4955189;28;20292;-72
2023/05/21 00:42:48;;;;;;;12.33;9.13;;;;;;;13.85;83.60;101095.59;4952451;28;20725;-70
2023/05/21 00:45:16;;;;;;;9.80;8.90;;;;;;;13.81;83.24;101091.41;4954363;28;20217;-70
2023/05/21 00:47:43;;;;;;;9.20;8.10;;;;;;;13.75;83.42;101086.50;4956315;28;20213;-69
2023/05/21 00:50:13;;;;;;;9.57;8.67;;;;;;;13.71;83.29;101086.81;4954730;28;20688;-69
2023/05/21 00:52:41;;;;;;;9.73;8.80;;;;;;;13.65;83.27;101082.72;4955014;28;20223;-70
2023/05/21 00:55:09;;;;;;;9.73;8.77;;;;;;;13.61;83.47;101078.56;4950821;28;20252;-71
2023/05/21 00:57:39;;;;;;;9.90;8.53;;;;;;;13.59;83.71;101079.63;4956673;28;20205;-70
2023/05/21 01:00:07;;;;;;;10.00;9.00;;;;;;;13.57;83.95;101079.75;4956600;28;20213;-70
2023/05/21 01:02:35;;;;;;;8.83;8.03;;;;;;;13.54;83.97;101077.25;4952613;28;20300;-72
2023/05/21 01:05:04;;;;;;;10.23;9.13;;;;;;;13.51;83.90;101078.34;4956193;28;20211;-72
2023/05/21 01:07:33;;;;;;;9.80;8.80;;;;;;;13.48;83.93;101075.84;4951909;28;20209;-70
2023/05/21 01:10:00;;;;;;;8.67;7.83;;;;;;;13.42;83.91;101073.63;4954195;28;20204;-70
2023/05/21 01:12:27;;;;;;;9.47;8.53;;;;;;;13.37;83.75;101069.53;4953473;28;20208;-70
2023/05/21 01:14:53;;;;;;;8.87;8.07;;;;;;;13.32;83.80;101066.31;4952837;28;20205;-69
2023/05/21 01:17:23;;;;;;;9.23;8.30;;;;;;;13.30;84.08;101070.91;4957144;28;20205;-70
2023/05/21 01:19:53;;;;;;;9.37;8.40;;;;;;;13.27;84.72;101068.44;4950423;28;20204;-70
2023/05/21 01:22:21;;;;;;;11.70;8.67;;;;;;;13.25;84.64;101068.56;4953478;28;20223;-69
2023/05/21 01:24:51;;;;;;;9.73;8.23;;;;;;;13.20;84.29;101074.22;4956612;28;20220;-70
2023/05/21 01:27:18;;;;;;;8.57;7.67;;;;;;;13.15;84.11;101068.31;4947828;28;20721;-70
2023/05/21 01:29:44;;;;;;;7.93;7.23;;;;;;;13.11;84.09;101069.44;4957967;28;20223;-70
2023/05/21 01:32:19;;;;;;;9.53;8.30;;;;;;;13.06;84.09;101076.09;4953300;28;20216;-70
2023/05/21 01:34:52;;;;;;;8.27;7.37;;;;;;;13.01;83.87;101068.34;4956352;28;20235;-71
2023/05/21 01:37:26;;;;;;;8.83;7.93;;;;;;;12.96;83.69;101064.25;4952126;28;20263;-70
2023/05/21 01:40:00;;;;;;;11.93;9.00;;;;;;;12.91;84.09;101056.53;4949834;28;20699;-70
2023/05/21 01:42:29;;;;;;;8.80;7.93;;;;;;;12.85;84.29;101065.84;4950721;28;20205;-70
2023/05/21 01:44:56;;;;;;;9.57;8.67;;;;;;;12.81;84.41;101050.97;4956419;28;20212;-72
2023/05/21 01:47:24;;;;;;;9.70;8.80;;;;;;;12.80;84.75;101053.75;4952829;28;20225;-70
2023/05/21 01:49:50;;;;;;;9.57;8.60;;;;;;;12.77;85.20;101054.78;4947994;28;20560;-70
2023/05/21 01:52:17;;;;;;;9.33;8.27;;;;;;;12.74;85.02;101062.16;4953029;28;20216;-70
2023/05/21 01:54:43;;;;;;;9.40;8.50;;;;;;;12.70;85.31;101058.00;4956531;28;20723;-71
2023/05/21 01:57:11;;;;;;;8.57;7.67;;;;;;;12.67;85.10;101061.72;4950006;28;20204;-69
2023/05/21 01:59:39;;;;;;;9.23;8.33;;;;;;;12.64;85.35;101051.22;4955771;28;20216;-69
2023/05/21 02:02:06;;;;;;;11.30;9.60;;;;;;;12.63;85.95;101059.34;4953379;28;20206;-70
2023/05/21 02:04:32;;;;;;;10.10;9.10;;;;;;;12.62;86.07;101062.97;4954291;28;20716;-70
2023/05/21 02:06:59;;;;;;;10.43;9.33;;;;;;;12.61;86.65;101063.91;4953779;28;20225;-69
2023/05/21 02:09:25;;;;;;;8.80;7.90;;;;;;;12.60;86.64;101059.53;4949801;28;20216;-70
2023/05/21 02:11:51;;;;;;;9.33;8.40;;;;;;;12.59;86.88;101066.69;4952779;28;20205;-69
2023/05/21 02:14:20;;;;;;;8.63;7.73;;;;;;;12.58;86.92;101066.78;4944926;28;20222;-70
2023/05/21 02:16:46;;;;;;;10.27;8.37;;;;;;;12.55;86.83;101061.63;4951921;28;20673;-70
2023/05/21 02:19:13;;;;;;;8.17;7.23;;;;;;;12.52;87.05;101062.72;4951226;28;20208;-69
2023/05/21 02:21:39;;;;;;;8.70;7.90;;;;;;;12.48;86.65;101059.38;4954135;28;20212;-69
2023/05/21 02:24:06;;;;;;;8.27;7.47;;;;;;;12.43;86.78;101050.81;4953771;28;20226;-70
2023/05/21 02:26:33;;;;;;;9.83;8.83;;;;;;;12.41;86.98;101055.38;4950575;28;20252;-68
2023/05/21 02:28:59;;;;;;;9.23;8.20;;;;;;;12.39;87.11;101054.63;4950846;28;20207;-69
2023/05/21 02:31:27;;;;;;;9.73;8.73;;;;;;;12.38;87.71;101055.56;4950877;28;20209;-69
2023/05/21 02:33:53;;;;;;;12.50;9.10;;;;;;;12.37;87.61;101053.00;4951804;28;20235;-69
2023/05/21 02:36:20;;;;;;;10.23;9.03;;;;;;;12.35;88.05;101046.94;4948874;28;20217;-68
2023/05/21 02:38:46;;;;;;;8.93;8.03;;;;;;;12.33;87.80;101047.03;4953733;28;20504;-69
2023/05/21 02:41:13;;;;;;;11.40;8.57;;;;;;;12.32;88.23;101055.13;4952381;28;20220;-70
2023/05/21 02:43:39;;;;;;;10.93;8.40;;;;;;;12.29;88.17;101045.50;4952908;28;20233;-70
2023/05/21 02:46:06;;;;;;;9.37;8.33;;;;;;;12.27;88.49;101047.41;4953543;28;20250;-69
2023/05/21 02:48:34;;;;;;;9.77;8.53;;;;;;;12.27;88.76;101052.75;4952590;28;20586;-70
2023/05/21 02:51:01;;;;;;;9.37;7.83;;;;;;;12.25;88.87;101051.97;4950308;28;20333;-70
2023/05/21 02:53:27;;;;;;;9.53;8.00;;;;;;;12.23;88.82;101053.03;4952588;28;20751;-70
2023/05/21 02:55:55;;;;;;;8.97;7.53;;;;;;;12.19;88.34;101044.34;4953376;28;20664;-70
2023/05/21 02:58:24;;;;;;;8.30;7.40;;;;;;;12.15;88.25;101051.72;4950967;28;20216;-70
2023/05/21 03:00:50;;;;;;;7.43;6.73;;;;;;;12.10;87.82;101055.63;4953843;28;20216;-69
2023/05/21 03:03:17;;;;;;;7.53;6.73;;;;;;;12.06;87.92;101046.09;4950061;28;20229;-69
2023/05/21 03:05:45;;;;;;;10.67;7.90;;;;;;;12.01;87.63;101046.38;4952348;28;20216;-70
2023/05/21 03:08:12;;;;;;;8.40;7.50;;;;;;;11.99;87.76;101045.66;4951768;28;20209;-70
2023/05/21 03:10:38;;;;;;;9.17;7.57;;;;;;;11.97;87.96;101046.69;4951870;28;20521;-70
2023/05/21 03:13:05;;;;;;;9.07;7.70;;;;;;;11.96;88.36;101042.31;4953104;28;20235;-71
2023/05/21 03:15:32;;;;;;;8.37;7.47;;;;;;;11.93;88.05;101032.66;4949931;28;20593;-69
2023/05/21 03:17:59;;;;;;;8.27;7.43;;;;;;;11.88;87.24;101029.41;4952678;28;20200;-70
2023/05/21 03:20:26;;;;;;;7.90;7.17;;;;;;;11.81;87.04;101031.63;4952194;28;20218;-70
2023/05/21 03:22:54;;;;;;;9.43;8.20;;;;;;;11.75;87.21;101023.09;4948908;28;20307;-71
2023/05/21 03:25:23;;;;;;;8.63;7.83;;;;;;;11.71;87.17;101033.09;4951975;28;20267;-71
2023/05/21 03:27:50;;;;;;;8.87;7.70;;;;;;;11.68;87.70;101027.09;4951852;28;20260;-69
2023/05/21 03:30:17;;;;;;;8.13;7.33;;;;;;;11.66;88.25;101019.19;4951656;28;20216;-69
2023/05/21 03:32:44;;;;;;;8.63;7.47;;;;;;;11.65;88.56;101014.81;4952017;28;20216;-70
2023/05/21 03:35:11;;;;;;;9.50;8.43;;;;;;;11.65;89.06;101022.81;4949378;28;20245;-70
2023/05/21 03:37:37;;;;;;;9.07;7.80;;;;;;;11.66;89.43;101024.53;4950118;28;20205;-70
2023/05/21 03:40:07;;;;;;;8.17;7.37;;;;;;;11.67;89.82;101020.03;4951070;28;20455;-70
2023/05/21 03:42:33;;;;;;;8.10;7.30;;;;;;;11.65;89.62;101022.81;4944013;28;20205;-69
2023/05/21 03:44:59;;;;;;;8.23;7.43;;;;;;;11.61;88.91;101021.31;4948266;28;20209;-70
2023/05/21 03:47:26;;;;;;;7.80;7.00;;;;;;;11.56;88.71;101017.19;4949858;28;20322;-69
2023/05/21 03:49:52;;;;;;;8.20;7.40;;;;;;;11.51;88.93;101020.13;4950391;28;20646;-70
2023/05/21 03:52:22;;;;;;;8.53;7.63;;;;;;;11.49;89.03;101020.22;4952251;28;20211;-71
2023/05/21 03:54:48;;;;;;;8.80;7.47;;;;;;;11.47;89.33;101022.13;4951526;28;20853;-70
2023/05/21 03:57:16;;;;;;;8.30;7.50;;;;;;;11.48;89.63;101031.00;4951748;28;20208;-71
2023/05/21 03:59:42;;;;;;;8.53;7.23;;;;;;;11.46;89.85;101028.41;4952050;28;20214;-70
2023/05/21 04:02:09;;;;;;;11.47;7.83;;;;;;;11.47;90.15;101022.13;4951250;28;20205;-71
2023/05/21 04:04:36;;;;;;;8.47;7.53;;;;;;;11.49;90.50;101025.56;4950845;28;20223;-70
2023/05/21 04:07:03;;;;;;;8.10;7.30;;;;;;;11.50;90.41;101029.09;4949648;28;20706;-70
2023/05/21 04:09:30;;;;;;;7.77;7.07;;;;;;;11.48;90.61;101026.50;4949360;28;20230;-71
2023/05/21 04:11:59;;;;;;;8.87;7.60;;;;;;;11.46;90.38;101033.75;4948759;28;20213;-70
2023/05/21 04:14:27;;;;;;;8.90;8.00;;;;;;;11.45;90.46;101026.72;4949632;28;20478;-69
2023/05/21 04:16:53;;;;;;;9.43;8.43;;;;;;;11.45;90.86;101031.19;4951030;28;21526;-70
2023/05/21 04:19:19;;;;;;;8.47;7.47;;;;;;;11.45;91.20;101025.88;4948432;28;20293;-70
2023/05/21 04:21:46;;;;;;;9.20;8.30;;;;;;;11.48;91.47;101031.00;4950368;28;20223;-71
2023/05/21 04:24:12;;;;;;;10.70;8.13;;;;;;;11.50;91.83;101029.09;4949004;28;20228;-70
2023/05/21 04:26:41;;;;;;;10.50;8.60;;;;;;;11.54;92.32;101027.09;4951506;28;20330;-70
2023/05/21 04:29:08;;;;;;;9.40;7.90;;;;;;;11.58;92.75;101028.63;4948459;28;20215;-71
2023/05/21 04:31:36;;;;;;;9.20;8.30;;;;;;;11.62;93.10;101031.03;4945285;28;20583;-72
2023/05/21 04:34:03;;;;;;;12.23;8.33;;;;;;;11.66;93.48;101029.84;4950078;28;20251;-70
2023/05/21 04:36:29;;;;;;;10.63;8.00;;;;;;;11.71;93.82;101027.78;4949929;28;20830;-70
2023/05/21 04:38:56;;;;;;;8.43;7.53;;;;;;;11.74;94.33;101030.25;4950777;28;20208;-69
2023/05/21 04:41:22;;;;;;;11.67;8.53;;;;;;;11.79;94.59;101041.53;4949069;28;20218;-71
2023/05/21 04:43:53;;;;;;;9.70;8.63;;;;;;;11.84;95.05;101030.56;4950767;28;20602;-70
2023/05/21 04:46:23;;;;;;;11.33;7.93;;;;;;;11.88;95.30;101033.91;4949431;28;20205;-70
2023/05/21 04:48:53;;;;;;;9.20;7.80;;;;;;;11.92;95.77;101030.94;4951207;28;20231;-69
2023/05/21 04:51:20;;;;;;;9.47;8.37;;;;;;;11.96;95.77;101031.63;4948528;28;20231;-70
2023/05/21 04:53:48;;;;;;;11.60;8.73;;;;;;;11.99;95.95;101034.09;4950343;28;20734;-70
2023/05/21 04:56:16;;;;;;;9.63;8.53;;;;;;;12.02;96.04;101025.88;4948428;28;20282;-69
2023/05/21 04:58:42;;;;;;;9.80;8.03;;;;;;;12.05;96.30;101026.53;4951827;28;20714;-70
2023/05/21 05:01:09;;;;;;;8.80;7.90;;;;;;;12.11;96.66;101031.50;4951008;28;20201;-70
2023/05/21 05:03:35;;;;;;;8.83;7.70;;;;;;;12.13;96.54;101034.09;4952221;28;20228;-70
2023/05/21 05:06:04;;;;;;;9.67;8.57;;;;;;;12.17;97.14;101035.59;4952031;28;20308;-70
2023/05/21 05:08:30;;;;;;;9.83;8.80;;;;;;;12.21;97.32;101031.75;4952933;28;20262;-70
2023/05/21 05:10:57;;;;;;;9.57;8.67;;;;;;;12.24;97.48;101023.56;4951448;28;20219;-70
2023/05/21 05:13:23;;;;;;;9.23;8.30;;;;;;;12.30;97.76;101028.50;4952396;28;20283;-70
2023/05/21 05:15:51;;;;;;;11.40;9.53;;;;;;;12.34;97.81;101016.69;4952154;28;20209;-69
2023/05/21 05:18:17;;;;;;;10.83;9.17;;;;;;;12.41;98.40;101028.66;4953035;28;20205;-70
2023/05/21 05:20:45;;;;;;;9.83;8.70;;;;;;;12.47;98.65;101028.28;4951723;28;20222;-70
2023/05/21 05:23:13;;;;;;;10.40;8.47;;;;;;;12.53;98.88;101024.34;4951775;28;20307;-70
2023/05/21 05:25:39;;;;;;;12.77;8.53;;;;;;;12.59;99.15;101025.75;4953111;28;20221;-70
2023/05/21 05:28:06;;;;;;;10.00;8.83;;;;;;;12.64;98.95;101020.97;4951845;28;20324;-70
2023/05/21 05:30:32;;;;;;;10.00;8.10;;;;;;;12.67;98.97;101016.28;4953485;28;20217;-69
2023/05/21 05:32:59;;;;;;;10.63;9.13;;;;;;;12.71;99.27;101012.47;4950895;28;20247;-70
2023/05/21 05:35:25;;;;;;;9.80;8.70;;;;;;;12.76;99.04;101023.69;4957269;28;20213;-70
2023/05/21 05:37:52;;;;;;;11.73;9.33;;;;;;;12.79;99.20;101017.28;4953692;28;20219;-71
2023/05/21 05:40:20;;;;;;;10.00;9.00;;;;;;;12.82;98.94;101015.25;4952346;28;20208;-70
2023/05/21 05:42:48;;;;;;;9.40;8.40;;;;;;;12.86;99.34;101018.59;4951109;28;20214;-69
2023/05/21 05:45:14;;;;;;;11.07;9.00;;;;;;;12.89;99.07;101013.03;4951558;28;20208;-72
2023/05/21 05:47:41;;;;;;;12.10;9.53;;;;;;;12.92;99.37;101007.47;4947404;28;20232;-69
2023/05/21 05:50:08;;;;;;;12.80;10.27;;;;;;;12.96;99.45;101005.44;4949847;28;20232;-70
2023/05/21 05:52:35;;;;;;;10.67;9.13;;;;;;;12.99;99.58;101014.13;4949257;28;20228;-70
2023/05/21 05:55:01;;;;;;;12.23;10.07;;;;;;;13.03;99.45;101012.97;4952028;28;20226;-70
2023/05/21 05:57:29;;;;;;;11.47;10.30;;;;;;;13.06;100.00;101020.78;4951660;28;20688;-69
2023/05/21 05:59:56;;;;;;;11.60;10.10;;;;;;;13.11;100.00;101018.63;4950216;28;20208;-70
2023/05/21 06:02:22;;;;;;;11.43;10.27;;;;;;;13.16;99.65;101021.03;4950634;28;20239;-69
2023/05/21 06:04:49;;;;;;;12.23;9.53;;;;;;;13.18;99.47;101019.97;4951149;28;20790;-70
2023/05/21 06:07:15;;;;;;;13.87;9.97;;;;;;;13.23;99.94;101019.66;4950703;28;20229;-70
2023/05/21 06:09:42;;;;;;;12.77;10.40;;;;;;;13.27;100.00;101021.16;4947081;28;20340;-69
2023/05/21 06:12:08;;;;;;;12.23;10.63;;;;;;;13.31;99.84;101019.97;4950789;28;20696;-70
2023/05/21 06:14:36;;;;;;;11.30;10.20;;;;;;;13.36;99.80;101012.50;4950419;28;20232;-71
2023/05/21 06:17:03;;;;;;;12.70;10.73;;;;;;;13.39;99.28;101023.00;4950418;28;20208;-71
2023/05/21 06:19:29;;;;;;;12.53;11.23;;;;;;;13.43;99.10;101024.50;4950876;28;20669;-70
2023/05/21 06:21:56;;;;;;;13.10;10.70;;;;;;;13.52;99.46;101028.34;4966543;28;20219;-70
2023/05/21 06:24:22;;;;;;;11.97;10.77;;;;;;;13.61;100.00;101022.38;4957597;28;20234;-71
2023/05/21 06:26:49;;;;;;;12.40;11.13;;;;;;;13.69;100.00;101030.69;4963252;28;20208;-69
2023/05/21 06:29:15;;;;;;;12.23;10.87;;;;;;;13.79;99.34;101030.94;4948596;28;20209;-70
2023/05/21 06:31:43;;;;;;;13.40;11.03;;;;;;;13.86;99.34;101024.16;4960819;28;20316;-70
2023/05/21 06:34:10;;;;;;;18.27;11.17;;;;;;;13.92;98.64;101025.53;4954021;28;20240;-70
2023/05/21 06:36:37;;;;;;;14.13;11.07;;;;;;;14.00;98.57;101020.47;4958752;28;20259;-69
2023/05/21 06:39:03;;;;;;;12.60;11.27;;;;;;;14.08;97.56;101028.84;4956227;28;20205;-71
2023/05/21 06:41:30;;;;;;;12.23;10.73;;;;;;;14.15;96.92;101032.78;4950454;28;20641;-70
2023/05/21 06:43:56;;;;;;;13.93;11.73;;;;;;;14.19;96.50;101019.03;4951388;28;20229;-69
2023/05/21 06:46:23;;;;;;;14.50;11.53;;;;;;;14.24;96.37;101026.75;4950166;28;20205;-70
2023/05/21 06:48:50;;;;;;;15.17;13.00;;;;;;;14.28;96.25;101022.91;4955324;28;20240;-72
2023/05/21 06:51:17;;;;;;;15.23;12.63;;;;;;;14.33;95.78;101026.06;4952379;28;20219;-70
2023/05/21 06:53:44;;;;;;;14.13;12.60;;;;;;;14.36;95.26;101025.84;4948568;28;20234;-70
2023/05/21 06:56:11;;;;;;;13.63;12.10;;;;;;;14.42;95.19;101025.44;4956004;28;20208;-70
2023/05/21 06:58:38;;;;;;;14.30;12.27;;;;;;;14.49;95.40;101028.53;4951637;28;20201;-70
2023/05/21 07:01:04;;;;;;;15.10;12.53;;;;;;;14.52;95.15;101018.44;4954904;28;20217;-70
2023/05/21 07:03:31;;;;;;;14.07;12.33;;;;;;;14.58;95.27;101019.81;4958480;28;20235;-69
2023/05/21 07:05:59;;;;;;;15.23;12.47;;;;;;;14.65;95.05;101013.03;4953286;28;20233;-68
2023/05/21 07:08:26;;;;;;;15.57;13.37;;;;;;;14.74;94.68;101016.84;4947280;28;20267;-70
2023/05/21 07:10:52;;;;;;;16.77;14.17;;;;;;;14.79;94.37;101012.84;4952895;28;20226;-69
2023/05/21 07:13:18;;;;;;;16.90;13.17;;;;;;;14.85;94.16;101019.59;4957488;28;20828;-70
2023/05/21 07:15:45;;;;;;;16.70;13.43;;;;;;;14.91;93.80;101025.31;4948947;28;20712;-73
2023/05/21 07:18:12;;;;;;;16.87;13.63;;;;;;;14.98;93.78;101017.69;4951414;28;20205;-70
2023/05/21 07:20:38;;;;;;;17.73;13.90;;;;;;;15.08;94.05;101012.47;4950825;28;20218;-72
2023/05/21 07:23:06;;;;;;;15.83;12.87;;;;;;;15.17;93.51;101011.78;4961725;28;20230;-70
2023/05/21 07:25:32;;;;;;;17.60;15.70;;;;;;;15.23;92.70;101009.44;4956646;28;20845;-70
2023/05/21 07:27:59;;;;;;;17.03;14.43;;;;;;;15.30;92.29;101007.16;4956783;28;20584;-73
2023/05/21 07:30:26;;;;;;;17.50;14.93;;;;;;;15.39;92.21;101006.47;4951077;28;20289;-71
2023/05/21 07:32:52;;;;;;;16.67;14.57;;;;;;;15.47;91.71;101005.84;4957057;28;21016;-70
2023/05/21 07:35:19;;;;;;;18.47;15.50;;;;;;;15.57;91.56;101004.19;4954008;28;20213;-72
2023/05/21 07:37:46;;;;;;;17.00;15.20;;;;;;;15.66;91.16;101010.66;4961500;28;20210;-71
2023/05/21 07:40:14;;;;;;;16.37;14.20;;;;;;;15.76;91.29;101004.47;4951302;28;20217;-71
2023/05/21 07:42:41;;;;;;;18.13;15.00;;;;;;;15.86;90.56;101008.13;4955239;28;20214;-72
2023/05/21 07:45:08;;;;;;;17.07;14.93;;;;;;;15.95;89.78;101003.81;4961857;28;20218;-70
2023/05/21 07:47:34;;;;;;;21.10;15.93;;;;;;;16.03;89.41;101005.91;4962209;28;20728;-72
2023/05/21 07:50:01;;;;;;;19.00;16.97;;;;;;;16.14;89.33;101008.56;4946969;28;20622;-71
2023/05/21 07:52:27;;;;;;;17.07;15.37;;;;;;;16.24;89.26;100999.66;4959853;28;20211;-71
2023/05/21 07:54:54;;;;;;;18.03;15.70;;;;;;;16.37;88.94;100999.50;4960266;28;20228;-70
2023/05/21 07:57:22;;;;;;;17.30;15.40;;;;;;;16.48;87.99;101001.31;4960565;28;20213;-70
2023/05/21 07:59:48;;;;;;;18.07;15.30;;;;;;;16.58;88.17;100996.88;4957614;28;20212;-69
2023/05/21 08:02:15;;;;;;;20.83;16.37;;;;;;;16.68;86.83;101000.53;4947081;28;20205;-73
2023/05/21 08:04:43;;;;;;;20.33;17.57;;;;;;;16.76;86.09;100997.22;4955669;28;20883;-69
2023/05/21 08:07:09;;;;;;;21.83;17.27;;;;;;;16.83;85.88;100995.72;4962778;28;20207;-71
2023/05/21 08:09:36;;;;;;;18.87;16.73;;;;;;;16.91;85.55;100994.09;4957784;28;20656;-71
2023/05/21 08:12:02;;;;;;;21.13;17.77;;;;;;;17.00;85.26;101000.53;4948964;28;20219;-70
2023/05/21 08:14:30;;;;;;;19.13;16.63;;;;;;;17.07;84.93;100995.47;4955316;28;20226;-71
2023/05/21 08:16:57;;;;;;;21.77;17.97;;;;;;;17.18;84.93;100988.22;4958748;28;20218;-70
2023/05/21 08:19:23;;;;;;;20.90;16.97;;;;;;;17.30;84.90;100991.69;4959892;28;20548;-69
2023/05/21 08:21:50;;;;;;;21.03;16.70;;;;;;;17.41;83.99;100990.75;4956054;28;20213;-69
2023/05/21 08:24:16;;;;;;;18.43;16.57;;;;;;;17.51;82.97;100995.22;4958225;28;20233;-68
2023/05/21 08:26:43;;;;;;;21.97;18.13;;;;;;;17.62;82.75;100995.13;4948353;28;20214;-73
2023/05/21 08:29:10;;;;;;;20.27;17.93;;;;;;;17.74;81.90;100992.34;4956163;28;20229;-70
2023/05/21 08:31:39;;;;;;;20.87;17.40;;;;;;;17.88;81.47;100992.88;4958940;28;20215;-70
2023/05/21 08:34:05;;;;;;;19.77;17.03;;;;;;;18.04;81.91;100995.06;4966766;28;20629;-72
2023/05/21 08:36:32;;;;;;;20.00;17.90;;;;;;;18.22;80.79;100995.25;4949274;28;20323;-70
2023/05/21 08:38:58;;;;;;;21.17;17.43;;;;;;;18.35;80.23;100988.59;4960896;28;20664;-70
2023/05/21 08:41:26;;;;;;;21.33;18.63;;;;;;;18.47;79.21;100992.03;4957587;28;20231;-72
2023/05/21 08:43:56;;;;;;;20.97;16.80;;;;;;;18.62;79.28;100995.22;4963339;28;20246;-70
2023/05/21 08:46:23;;;;;;;20.70;18.10;;;;;;;18.77;78.38;100988.41;4956862;28;20223;-71
2023/05/21 08:48:53;;;;;;;21.87;17.17;;;;;;;18.87;77.47;100991.09;4960289;28;20235;-72
2023/05/21 08:51:21;;;;;;;20.30;17.53;;;;;;;19.01;77.32;100990.66;4954201;28;20222;-70
2023/05/21 08:53:48;;;;;;;21.27;18.17;;;;;;;19.13;76.67;100989.53;4964049;28;20479;-70
2023/05/21 08:56:16;;;;;;;19.10;16.77;;;;;;;19.20;76.31;100974.44;4950589;28;20227;-73
2023/05/21 08:58:45;;;;;;;21.03;18.83;;;;;;;19.29;75.65;100981.69;4957772;28;20678;-70
2023/05/21 09:01:12;;;;;;;21.87;17.80;;;;;;;19.36;75.33;100974.69;4955237;28;20219;-72
2023/05/21 09:03:40;;;;;;;22.87;18.57;;;;;;;19.42;75.14;100984.06;4960786;28;20441;-69
2023/05/21 09:06:12;;;;;;;21.90;19.10;;;;;;;19.47;73.79;100976.38;4955230;28;20210;-71
2023/05/21 09:08:44;;;;;;;21.13;18.10;;;;;;;19.51;73.80;100976.97;4958103;28;20487;-71
2023/05/21 09:11:10;;;;;;;21.63;18.80;;;;;;;19.57;73.81;100974.53;4954126;28;20584;-71
2023/05/21 09:13:38;;;;;;;21.00;18.43;;;;;;;19.62;73.96;100979.50;4957911;28;20237;-71
2023/05/21 09:16:06;;;;;;;22.53;19.40;;;;;;;19.67;73.84;100974.50;4954134;28;20230;-70
2023/05/21 09:18:32;;;;;;;23.80;19.80;;;;;;;19.76;74.16;100976.31;4955056;28;20211;-71
2023/05/21 09:21:21;;;;;;;24.10;19.40;;;;;;;19.89;75.11;100976.81;4957244;28;20211;-70
2023/05/21 09:23:54;;;;;;;23.13;19.23;;;;;;;20.04;74.05;100978.03;4952204;28;20232;-72
2023/05/21 09:26:21;;;;;;;24.33;19.93;;;;;;;20.16;73.55;100977.81;4952216;28;20215;-71
2023/05/21 09:28:47;;;;;;;22.53;18.57;;;;;;;20.24;72.50;100977.94;4952674;28;20258;-70
2023/05/21 09:31:14;;;;;;;22.02;19.38;;;;;;;20.34;72.50;100974.16;4952233;28;20518;-70
2023/05/21 09:33:46;;;;;;;22.35;20.05;;;;;;;20.48;72.20;100982.78;4953529;28;20240;-72
2023/05/21 09:36:12;;;;;;;22.33;19.08;;;;;;;20.62;71.87;100984.94;4959308;28;20720;-69
2023/05/21 09:38:39;;;;;;;19.73;17.67;;;;;;;20.77;71.78;100983.44;4958392;28;20216;-72
2023/05/21 09:41:07;;;;;;;21.15;17.25;;;;;;;20.91;70.81;100982.88;4952249;28;20728;-70
2023/05/21 09:43:33;;;;;;;21.27;18.98;;;;;;;21.06;70.01;100977.75;4954563;28;20251;-71
2023/05/21 09:46:00;;;;;;;20.92;18.20;;;;;;;21.21;69.56;100970.78;4957511;28;20215;-72
2023/05/21 09:48:34;;;;;;;25.10;19.45;;;;;;;21.30;68.48;100969.84;4956132;28;20224;-70
2023/05/21 09:51:11;;;;;;;22.02;18.55;;;;;;;21.42;68.82;100965.88;4958459;28;20649;-70
2023/05/21 09:53:43;;;;;;;21.13;18.27;;;;;;;21.54;68.54;100963.72;4953796;28;20309;-70
2023/05/21 09:56:11;;;;;;;21.10;19.00;;;;;;;21.65;67.60;100968.03;4956448;28;20201;-69
2023/05/21 09:58:38;;;;;;;20.80;18.60;;;;;;;21.71;66.36;100965.50;4953356;28;20582;-70
2023/05/21 10:01:06;;;;;;;19.92;17.83;;;;;;;21.78;67.05;100963.88;4955018;28;20205;-70
2023/05/21 10:03:35;;;;;;;21.23;18.15;;;;;;;21.92;67.64;100958.84;4951524;28;20248;-70
2023/05/21 10:06:03;;;;;;;23.65;18.77;;;;;;;22.02;66.97;100960.47;4957300;28;21034;-72
2023/05/21 10:08:33;;;;;;;20.42;18.25;;;;;;;22.11;66.19;100953.19;4952928;28;20225;-69
2023/05/21 10:11:05;;;;;;;20.13;17.95;;;;;;;22.23;66.74;100957.28;4954650;28;20231;-70
2023/05/21 10:13:41;;;;;;;23.30;19.63;;;;;;;22.33;65.56;100957.16;4954645;28;20657;-70
2023/05/21 10:16:08;;;;;;;20.00;18.08;;;;;;;22.41;65.17;100949.00;4954823;28;20703;-69
2023/05/21 10:18:37;;;;;;;21.30;18.02;;;;;;;22.50;64.14;100950.75;4959023;28;20192;-71
2023/05/21 10:21:05;;;;;;;20.13;17.95;;;;;;;22.63;64.71;100948.38;4954410;28;20224;-70
2023/05/21 10:23:36;;;;;;;20.92;18.65;;;;;;;22.75;63.84;100947.03;4951878;28;20235;-69
2023/05/21 10:26:03;;;;;;;21.75;18.40;;;;;;;22.89;63.32;100952.84;4949162;28;20213;-70
2023/05/21 10:28:30;;;;;;;18.77;16.98;;;;;;;22.94;62.00;100945.88;4951868;28;20341;-71
2023/05/21 10:30:59;;;;;;;21.77;18.15;;;;;;;23.02;62.03;100937.72;4952419;28;20212;-71
2023/05/21 10:33:27;;;;;;;21.63;19.38;;;;;;;23.08;61.44;100934.34;4946969;28;20231;-74
2023/05/21 10:35:56;;;;;;;20.65;18.48;;;;;;;23.14;61.40;100935.50;4951461;28;20208;-72
2023/05/21 10:38:25;;;;;;;20.45;18.30;;;;;;;23.15;61.80;100938.06;4955159;28;20208;-69
2023/05/21 10:40:53;;;;;;;21.20;19.10;;;;;;;23.21;61.88;100939.25;4942770;28;20220;-70
2023/05/21 10:43:41;;;;;;;21.10;18.40;;;;;;;23.22;61.10;100932.78;4951309;28;21885;-70
2023/05/21 10:46:24;;;;;;;20.15;17.92;;;;;;;23.26;61.42;100923.28;4944952;28;20223;-70
2023/05/21 10:49:03;;;;;;;19.67;17.67;;;;;;;23.32;61.07;100919.84;4945749;28;20238;-71
2023/05/21 10:51:45;;;;;;;19.90;18.00;;;;;;;23.37;61.17;100917.47;4944836;28;20212;-71
2023/05/21 10:54:48;;;;;;;18.70;16.95;;;;;;;23.47;60.95;100917.25;4939043;28;21016;-71
2023/05/21 10:57:34;;;;;;;19.63;17.55;;;;;;;23.55;61.56;100911.84;4947201;28;20204;-70
2023/05/21 11:00:01;;;;;;;19.20;17.38;;;;;;;23.68;61.69;100906.69;4945039;28;20216;-73
2023/05/21 11:02:29;;;;;;;18.52;16.63;;;;;;;23.80;60.77;100907.19;4948227;28;20256;-72
2023/05/21 11:04:58;;;;;;;17.50;15.18;;;;;;;23.82;59.05;100907.84;4944500;28;20208;-71
2023/05/21 11:07:55;;;;;;;17.90;16.17;;;;;;;23.82;58.98;100897.81;4949223;28;20211;-72
2023/05/21 11:10:32;;;;;;;18.05;16.25;;;;;;;23.85;58.91;100896.59;4946272;28;20609;-72
2023/05/21 11:13:06;;;;;;;17.10;15.40;;;;;;;23.89;58.92;100897.94;4944610;28;20383;-70
2023/05/21 11:16:09;;;;;;;18.90;16.52;;;;;;;23.89;58.54;100895.22;4943329;28;20212;-70
2023/05/21 11:18:59;;;;;;;18.73;16.08;;;;;;;23.90;58.40;100888.75;4941530;28;20219;-70
2023/05/21 11:21:29;;;;;;;17.15;15.40;;;;;;;23.94;58.31;100883.81;4924259;28;20743;-71